createdAt,value
2019-04-29T00:02:11.229Z,10.28
2019-04-29T00:04:39.503Z,10.50
2019-04-29T00:07:08.804Z,10.28
2019-04-29T00:09:37.161Z,10.00
2019-04-29T00:12:05.545Z,9.63
2019-04-29T00:14:35.084Z,10.00
2019-04-29T00:17:14.284Z,10.23
2019-04-29T00:19:44.529Z,9.90
2019-04-29T00:22:13.096Z,9.70
2019-04-29T00:24:41.377Z,9.38
2019-04-29T00:27:09.687Z,9.40
2019-04-29T00:29:37.988Z,10.30
2019-04-29T00:32:06.671Z,10.35
2019-04-29T00:34:35.292Z,10.63
2019-04-29T00:37:21.362Z,10.32
2019-04-29T00:40:07.470Z,10.43
2019-04-29T00:42:37.441Z,11.22
2019-04-29T00:45:07.089Z,10.27
2019-04-29T00:47:35.692Z,10.50
2019-04-29T00:50:06.158Z,10.20
2019-04-29T00:52:34.450Z,9.40
2019-04-29T00:55:13.563Z,9.70
2019-04-29T00:57:42.212Z,10.20
2019-04-29T01:00:12.518Z,10.40
2019-04-29T01:02:41.224Z,10.30
2019-04-29T01:05:09.599Z,10.00
2019-04-29T01:07:37.888Z,10.60
2019-04-29T01:10:06.616Z,10.13
2019-04-29T01:12:35.496Z,10.98
2019-04-29T01:15:05.895Z,12.18
2019-04-29T01:17:34.459Z,11.80
2019-04-29T01:20:02.753Z,11.40
2019-04-29T01:22:31.512Z,11.30
2019-04-29T01:25:00.103Z,11.17
2019-04-29T01:27:30.049Z,11.20
2019-04-29T01:29:59.737Z,11.33
2019-04-29T01:32:28.062Z,12.20
2019-04-29T01:34:56.515Z,12.20
2019-04-29T01:37:26.627Z,12.23
2019-04-29T01:39:59.579Z,11.60
2019-04-29T01:42:29.523Z,11.60
2019-04-29T01:44:57.811Z,12.23
2019-04-29T01:47:26.132Z,12.28
2019-04-29T01:49:54.423Z,11.45
2019-04-29T01:52:22.739Z,12.00
2019-04-29T01:54:51.289Z,12.00
2019-04-29T01:57:19.889Z,11.63
2019-04-29T01:59:48.456Z,11.78
2019-04-29T02:02:16.760Z,10.65
2019-04-29T02:04:45.071Z,11.50
2019-04-29T02:07:13.441Z,11.33
2019-04-29T02:09:58.171Z,10.53
2019-04-29T02:12:26.457Z,12.28
2019-04-29T02:14:54.771Z,11.70
2019-04-29T02:17:23.049Z,10.78
2019-04-29T02:19:51.350Z,11.38
2019-04-29T02:22:33.121Z,13.03
2019-04-29T02:25:03.070Z,12.10
2019-04-29T02:27:31.637Z,11.35
2019-04-29T02:29:59.931Z,11.40
2019-04-29T02:32:28.322Z,11.85
2019-04-29T02:34:56.640Z,11.10
2019-04-29T02:37:26.569Z,10.68
2019-04-29T02:39:59.269Z,11.50
2019-04-29T02:42:45.656Z,12.00
2019-04-29T02:45:24.704Z,12.07
2019-04-29T02:47:53.001Z,11.53
2019-04-29T02:50:21.286Z,11.97
2019-04-29T02:52:49.599Z,12.40
2019-04-29T02:55:19.546Z,12.13
2019-04-29T02:57:55.295Z,13.05
2019-04-29T03:00:31.131Z,12.85
2019-04-29T03:03:13.359Z,12.90
2019-04-29T03:05:43.672Z,13.17
2019-04-29T03:08:12.038Z,12.50
2019-04-29T03:10:40.742Z,12.70
2019-04-29T03:13:09.277Z,13.70
2019-04-29T03:15:40.657Z,12.20
2019-04-29T03:18:08.994Z,12.82
2019-04-29T03:20:53.685Z,13.22
2019-04-29T03:23:23.633Z,12.47
2019-04-29T03:25:52.010Z,13.20
2019-04-29T03:28:20.584Z,12.80
2019-04-29T03:30:49.160Z,12.50
2019-04-29T03:33:17.464Z,12.00
2019-04-29T03:35:45.787Z,12.07
2019-04-29T03:38:14.100Z,13.25
2019-04-29T03:40:42.673Z,12.67
2019-04-29T03:43:10.965Z,13.10
2019-04-29T03:45:39.528Z,11.88
2019-04-29T03:48:08.136Z,12.43
2019-04-29T03:50:36.412Z,13.28
2019-04-29T03:53:04.805Z,12.20
2019-04-29T03:55:39.676Z,12.40
2019-04-29T03:58:03.110Z,12.33
2019-04-29T04:00:31.401Z,12.63
2019-04-29T04:03:01.350Z,12.95
2019-04-29T04:05:34.270Z,12.53
2019-04-29T04:08:13.617Z,12.88
2019-04-29T04:10:41.883Z,12.23
2019-04-29T04:13:10.204Z,11.97
2019-04-29T04:15:38.502Z,12.37
2019-04-29T04:18:23.308Z,12.35
2019-04-29T04:20:51.646Z,12.10
2019-04-29T04:23:19.898Z,11.80
2019-04-29T04:25:48.195Z,12.00
2019-04-29T04:28:16.592Z,11.75
2019-04-29T04:30:44.972Z,12.27
2019-04-29T04:33:13.542Z,12.40
2019-04-29T04:35:41.845Z,11.28
2019-04-29T04:38:10.502Z,12.00
2019-04-29T04:40:46.304Z,12.25
2019-04-29T04:43:14.601Z,11.45
2019-04-29T04:45:42.892Z,12.10
2019-04-29T04:48:11.482Z,14.93
2019-04-29T04:50:39.776Z,14.63
2019-04-29T04:53:08.065Z,19.47
2019-04-29T04:55:38.011Z,13.00
2019-04-29T04:58:06.342Z,11.80
2019-04-29T05:00:36.312Z,11.97
2019-04-29T05:03:04.766Z,11.97
2019-04-29T05:05:33.039Z,11.97
2019-04-29T05:08:01.361Z,10.80
2019-04-29T05:10:29.660Z,10.78
2019-04-29T05:12:58.024Z,11.50
2019-04-29T05:15:26.299Z,11.70
2019-04-29T05:17:54.604Z,11.45
2019-04-29T05:20:23.151Z,11.70
2019-04-29T05:22:59.978Z,10.90
2019-04-29T05:25:31.670Z,10.53
2019-04-29T05:28:00.135Z,10.90
2019-04-29T05:30:28.504Z,11.38
2019-04-29T05:32:56.824Z,10.72
2019-04-29T05:35:26.755Z,11.15
2019-04-29T05:37:59.508Z,11.05
2019-04-29T05:40:47.727Z,11.00
2019-04-29T05:43:17.701Z,10.60
2019-04-29T05:46:07.277Z,10.70
2019-04-29T05:48:34.219Z,11.93
2019-04-29T05:51:09.874Z,12.05
2019-04-29T05:53:42.544Z,11.97
2019-04-29T05:56:11.112Z,11.03
2019-04-29T05:58:39.658Z,11.97
2019-04-29T06:01:09.921Z,12.20
2019-04-29T06:03:39.777Z,12.13
2019-04-29T06:06:08.225Z,12.50
2019-04-29T06:08:39.251Z,12.13
2019-04-29T06:11:06.808Z,12.40
2019-04-29T06:13:35.351Z,11.93
2019-04-29T06:16:03.969Z,12.98
2019-04-29T06:18:32.258Z,13.30
2019-04-29T06:21:08.697Z,12.90
2019-04-29T06:23:30.639Z,12.67
2019-04-29T06:25:58.939Z,11.65
2019-04-29T06:28:28.221Z,12.45
2019-04-29T06:30:56.641Z,12.40
2019-04-29T06:33:29.063Z,12.93
2019-04-29T06:35:57.066Z,11.93
2019-04-29T06:38:25.478Z,11.50
2019-04-29T06:40:53.755Z,11.30
2019-04-29T06:43:24.672Z,10.77
2019-04-29T06:45:52.204Z,10.63
2019-04-29T06:48:20.767Z,10.90
2019-04-29T06:50:49.832Z,11.10
2019-04-29T06:53:21.214Z,10.88
2019-04-29T06:55:48.280Z,12.20
2019-04-29T06:58:16.957Z,13.07
2019-04-29T07:00:45.231Z,13.28
2019-04-29T07:03:13.909Z,14.53
2019-04-29T07:05:42.340Z,15.00
2019-04-29T07:08:11.082Z,14.40
2019-04-29T07:10:39.403Z,16.45
2019-04-29T07:13:07.681Z,16.42
2019-04-29T07:15:36.068Z,17.80
2019-04-29T07:18:05.100Z,18.20
2019-04-29T07:20:37.074Z,19.10
2019-04-29T07:23:03.435Z,22.70
2019-04-29T07:25:31.728Z,18.50
2019-04-29T07:28:00.028Z,19.27
2019-04-29T07:30:29.524Z,19.50
2019-04-29T07:32:57.906Z,19.03
2019-04-29T07:35:26.230Z,18.70
2019-04-29T07:37:54.616Z,21.25
2019-04-29T07:40:22.978Z,18.50
2019-04-29T07:42:51.295Z,20.95
2019-04-29T07:45:28.014Z,19.70
2019-04-29T07:47:56.833Z,19.57
2019-04-29T07:50:26.795Z,17.60
2019-04-29T07:52:55.442Z,16.97
2019-04-29T07:55:25.965Z,17.10
2019-04-29T07:57:54.121Z,17.20
2019-04-29T08:00:35.457Z,16.90
2019-04-29T08:03:06.826Z,16.90
2019-04-29T08:05:35.287Z,17.60
2019-04-29T08:08:04.240Z,18.12
2019-04-29T08:10:32.522Z,18.05
2019-04-29T08:13:01.002Z,17.50
2019-04-29T08:15:31.836Z,18.70
2019-04-29T08:18:06.316Z,18.50
2019-04-29T08:20:29.696Z,18.00
2019-04-29T08:22:58.343Z,17.93
2019-04-29T08:25:28.051Z,17.27
2019-04-29T08:27:56.340Z,17.98
2019-04-29T08:30:24.656Z,17.87
2019-04-29T08:32:53.306Z,16.70
2019-04-29T08:35:21.613Z,16.75
2019-04-29T08:37:49.909Z,16.37
2019-04-29T08:40:18.218Z,15.25
2019-04-29T08:43:04.490Z,14.85
2019-04-29T08:45:34.845Z,15.05
2019-04-29T08:48:04.720Z,15.75
2019-04-29T08:50:33.348Z,14.70
2019-04-29T08:53:01.632Z,15.20
2019-04-29T08:55:30.955Z,14.35
2019-04-29T08:57:59.969Z,14.73
2019-04-29T09:00:28.249Z,14.43
2019-04-29T09:02:56.548Z,13.53
2019-04-29T09:05:24.841Z,12.70
2019-04-29T09:07:57.285Z,14.20
2019-04-29T09:10:23.286Z,13.90
2019-04-29T09:12:51.578Z,13.50
2019-04-29T09:15:20.074Z,13.55
2019-04-29T09:17:48.326Z,13.07
2019-04-29T09:20:19.011Z,12.57
2019-04-29T09:22:48.964Z,11.57
2019-04-29T09:25:28.039Z,10.90
2019-04-29T09:27:58.142Z,10.80
2019-04-29T09:30:26.613Z,11.08
2019-04-29T09:32:54.912Z,10.43
2019-04-29T09:35:23.520Z,9.20
2019-04-29T09:37:53.892Z,9.13
2019-04-29T09:40:23.491Z,9.20
2019-04-29T09:42:59.364Z,8.90
2019-04-29T09:45:45.508Z,8.25
2019-04-29T09:48:13.829Z,7.95
2019-04-29T09:50:42.123Z,7.53
2019-04-29T09:53:10.440Z,7.55
2019-04-29T09:55:39.981Z,7.47
2019-04-29T09:58:09.118Z,7.50
2019-04-29T10:00:58.296Z,7.30
2019-04-29T10:03:45.425Z,10.32
2019-04-29T10:06:21.057Z,7.72
2019-04-29T10:08:49.651Z,7.47
2019-04-29T10:11:17.942Z,7.40
2019-04-29T10:13:46.312Z,7.03
2019-04-29T10:16:19.238Z,7.70
2019-04-29T10:18:54.960Z,7.30
2019-04-29T10:21:24.151Z,7.33
2019-04-29T10:23:52.638Z,7.47
2019-04-29T10:26:21.116Z,6.62
2019-04-29T10:28:59.782Z,6.70
2019-04-29T10:31:28.198Z,6.60
2019-04-29T10:33:56.604Z,6.20
2019-04-29T10:36:26.269Z,6.70
2019-04-29T10:38:56.804Z,6.60
2019-04-29T10:41:30.053Z,6.40
2019-04-29T10:44:00.011Z,6.62
2019-04-29T10:46:46.182Z,7.00
2019-04-29T10:49:16.433Z,7.50
2019-04-29T10:51:45.013Z,6.70
2019-04-29T10:54:14.336Z,7.08
2019-04-29T10:56:42.782Z,7.80
2019-04-29T10:59:11.629Z,6.80
2019-04-29T11:02:00.668Z,7.37
2019-04-29T11:04:20.414Z,6.90
2019-04-29T11:06:49.113Z,8.57
2019-04-29T11:09:31.188Z,8.08
2019-04-29T11:11:59.476Z,6.92
2019-04-29T11:14:27.801Z,7.87
2019-04-29T11:16:56.326Z,7.12
2019-04-29T11:19:24.919Z,7.35
2019-04-29T11:21:53.312Z,7.50
2019-04-29T11:24:25.740Z,7.20
2019-04-29T11:26:55.779Z,7.12
2019-04-29T11:29:27.388Z,8.00
2019-04-29T11:31:55.939Z,7.97
2019-04-29T11:34:33.384Z,8.10
2019-04-29T11:37:01.768Z,6.70
2019-04-29T11:39:30.065Z,6.70
2019-04-29T11:41:59.798Z,7.25
2019-04-29T11:44:31.856Z,6.80
2019-04-29T11:46:59.719Z,6.50
2019-04-29T11:49:29.724Z,8.00
2019-04-29T11:52:09.099Z,7.70
2019-04-29T11:54:28.760Z,11.28
2019-04-29T11:56:57.069Z,8.65
2019-04-29T11:59:36.144Z,5.80
2019-04-29T12:02:24.763Z,6.22
2019-04-29T12:04:59.206Z,5.35
2019-04-29T12:07:32.548Z,6.30
2019-04-29T12:10:02.244Z,9.97
2019-04-29T12:12:28.752Z,6.53
2019-04-29T12:14:58.679Z,5.97
2019-04-29T12:17:28.629Z,6.42
2019-04-29T12:19:58.537Z,6.45
2019-04-29T12:22:30.740Z,7.00
2019-04-29T12:24:57.176Z,6.30
2019-04-29T12:27:28.960Z,8.60
2019-04-29T12:29:59.462Z,8.40
2019-04-29T12:32:27.840Z,6.25
2019-04-29T12:35:06.648Z,6.85
2019-04-29T12:37:39.273Z,9.45
2019-04-29T12:40:16.221Z,8.20
2019-04-29T12:42:58.321Z,5.65
2019-04-29T12:45:28.289Z,4.72
2019-04-29T12:47:56.577Z,4.80
2019-04-29T12:50:24.947Z,4.87
2019-04-29T12:52:53.221Z,4.35
2019-04-29T12:55:49.074Z,4.17
2019-04-29T12:58:11.751Z,4.20
2019-04-29T13:00:47.524Z,4.00
2019-04-29T13:03:17.697Z,4.28
2019-04-29T13:05:58.414Z,4.28
2019-04-29T13:08:39.854Z,4.17
2019-04-29T13:11:09.689Z,4.40
2019-04-29T13:13:37.968Z,4.12
2019-04-29T13:16:20.087Z,3.80
2019-04-29T13:18:48.968Z,4.40
2019-04-29T13:21:18.764Z,4.10
2019-04-29T13:23:59.519Z,4.50
2019-04-29T13:26:27.812Z,3.92
2019-04-29T13:29:00.450Z,4.30
2019-04-29T13:31:20.137Z,4.10
2019-04-29T13:33:51.015Z,4.10
2019-04-29T13:36:19.637Z,4.17
2019-04-29T13:38:48.573Z,3.85
2019-04-29T13:41:23.820Z,3.80
2019-04-29T13:43:47.362Z,3.87
2019-04-29T13:46:17.292Z,3.60
2019-04-29T13:49:12.831Z,3.50
2019-04-29T13:51:39.475Z,3.75
2019-04-29T13:54:07.762Z,3.87
2019-04-29T13:56:54.551Z,3.50
2019-04-29T13:59:10.728Z,3.77
2019-04-29T14:01:57.768Z,3.47
2019-04-29T14:04:13.837Z,3.92
2019-04-29T14:06:56.139Z,3.73
2019-04-29T14:09:14.303Z,3.65
2019-04-29T14:11:42.577Z,3.60
2019-04-29T14:14:10.878Z,3.45
2019-04-29T14:16:43.063Z,2.72
2019-04-29T14:19:09.358Z,3.00
2019-04-29T14:21:37.655Z,3.10
2019-04-29T14:24:06.307Z,3.40
2019-04-29T14:26:36.965Z,3.17
2019-04-29T14:29:05.255Z,3.25
2019-04-29T14:31:33.539Z,3.50
2019-04-29T14:34:21.796Z,3.00
2019-04-29T14:36:50.099Z,3.10
2019-04-29T14:39:36.131Z,3.60
2019-04-29T14:41:51.027Z,3.12
2019-04-29T14:44:33.677Z,3.50
2019-04-29T14:47:06.272Z,3.50
2019-04-29T14:49:39.741Z,3.20
2019-04-29T14:52:08.281Z,3.20
2019-04-29T14:54:36.867Z,3.60
2019-04-29T14:57:09.105Z,3.10
2019-04-29T14:59:37.315Z,3.40
2019-04-29T15:02:11.919Z,3.53
2019-04-29T15:04:39.312Z,3.30
2019-04-29T15:07:07.714Z,4.00
2019-04-29T15:09:46.367Z,4.07
2019-04-29T15:12:17.269Z,4.90
2019-04-29T15:14:47.693Z,4.30
2019-04-29T15:17:17.734Z,4.90
2019-04-29T15:19:55.760Z,4.70
2019-04-29T15:22:30.246Z,5.60
2019-04-29T15:24:58.526Z,5.20
2019-04-29T15:27:26.913Z,5.33
2019-04-29T15:29:55.199Z,5.40
2019-04-29T15:32:23.916Z,5.10
2019-04-29T15:34:52.229Z,5.25
2019-04-29T15:37:20.513Z,5.20
2019-04-29T15:39:48.802Z,6.00
2019-04-29T15:42:17.342Z,5.95
2019-04-29T15:44:46.030Z,5.90
2019-04-29T15:47:14.619Z,5.78
2019-04-29T15:49:42.905Z,6.17
2019-04-29T15:52:11.191Z,6.40
2019-04-29T15:54:39.846Z,6.40
2019-04-29T15:57:10.749Z,6.70
2019-04-29T15:59:48.449Z,6.30
2019-04-29T16:02:09.273Z,6.80
2019-04-29T16:04:39.383Z,7.20
2019-04-29T16:07:25.238Z,6.95
2019-04-29T16:10:14.471Z,6.97
2019-04-29T16:12:45.355Z,6.60
2019-04-29T16:15:13.628Z,7.10
2019-04-29T16:17:42.001Z,7.00
2019-04-29T16:20:10.275Z,7.70
2019-04-29T16:22:39.353Z,7.75
2019-04-29T16:25:11.023Z,7.87
2019-04-29T16:27:41.593Z,7.67
2019-04-29T16:30:08.524Z,7.42
2019-04-29T16:32:38.471Z,7.95
2019-04-29T16:35:07.154Z,8.50
2019-04-29T16:37:35.504Z,7.40
2019-04-29T16:40:07.551Z,7.70
2019-04-29T16:42:43.661Z,8.53
2019-04-29T16:45:14.216Z,8.60
2019-04-29T16:47:47.554Z,8.47
2019-04-29T16:50:12.323Z,8.35
2019-04-29T16:52:44.332Z,10.38
2019-04-29T16:55:11.379Z,10.35
2019-04-29T16:57:39.661Z,10.20
2019-04-29T17:00:13.689Z,8.78
2019-04-29T17:02:40.422Z,10.10
2019-04-29T17:05:09.135Z,9.10
2019-04-29T17:07:37.491Z,8.93
2019-04-29T17:10:10.869Z,9.63
2019-04-29T17:12:40.794Z,9.55
2019-04-29T17:15:23.573Z,10.05
2019-04-29T17:17:39.424Z,9.90
2019-04-29T17:20:08.279Z,9.30
2019-04-29T17:22:43.246Z,9.53
2019-04-29T17:25:08.454Z,9.48
2019-04-29T17:27:47.387Z,9.60
2019-04-29T17:30:38.290Z,9.40
2019-04-29T17:33:26.470Z,9.43
2019-04-29T17:35:47.905Z,10.03
2019-04-29T17:38:17.353Z,10.65
2019-04-29T17:40:51.244Z,11.53
2019-04-29T17:43:17.689Z,9.98
2019-04-29T17:45:47.621Z,11.15
2019-04-29T17:48:33.782Z,12.70
2019-04-29T17:51:03.919Z,11.60
2019-04-29T17:53:40.012Z,11.55
2019-04-29T17:56:14.953Z,12.28
2019-04-29T17:58:54.733Z,12.30
2019-04-29T18:01:29.018Z,12.85
2019-04-29T18:04:11.816Z,13.78
2019-04-29T18:06:40.315Z,13.13
2019-04-29T18:09:31.834Z,13.72
2019-04-29T18:12:01.266Z,12.88
2019-04-29T18:14:36.570Z,13.60
2019-04-29T18:16:59.713Z,13.18
2019-04-29T18:19:36.184Z,12.30
2019-04-29T18:22:07.320Z,11.70
2019-04-29T18:24:37.497Z,11.95
2019-04-29T18:27:10.264Z,11.97
2019-04-29T18:29:41.607Z,11.90
2019-04-29T18:32:08.928Z,12.90
2019-04-29T18:34:38.002Z,12.85
2019-04-29T18:37:06.682Z,12.10
2019-04-29T18:39:35.302Z,13.00
2019-04-29T18:42:06.711Z,13.28
2019-04-29T18:44:33.629Z,12.93
2019-04-29T18:47:01.947Z,12.63
2019-04-29T18:49:30.250Z,13.15
2019-04-29T18:52:02.153Z,13.70
2019-04-29T18:54:28.560Z,12.98
2019-04-29T18:56:56.891Z,12.55
2019-04-29T18:59:30.706Z,12.50
2019-04-29T19:01:55.470Z,12.63
2019-04-29T19:04:31.272Z,11.48
2019-04-29T19:07:02.424Z,11.73
2019-04-29T19:09:32.153Z,11.12
2019-04-29T19:12:01.642Z,11.30
2019-04-29T19:14:29.939Z,11.35
2019-04-29T19:17:01.300Z,11.40
2019-04-29T19:19:30.835Z,13.50
2019-04-29T19:22:00.793Z,11.97
2019-04-29T19:24:31.507Z,12.20
2019-04-29T19:27:00.778Z,10.50
2019-04-29T19:29:29.499Z,11.55
2019-04-29T19:31:57.889Z,11.50
2019-04-29T19:34:26.276Z,12.58
2019-04-29T19:36:58.155Z,11.77
2019-04-29T19:39:25.524Z,11.40
2019-04-29T19:41:55.719Z,11.93
2019-04-29T19:44:26.488Z,11.90
2019-04-29T19:46:56.949Z,10.50
2019-04-29T19:49:25.780Z,10.40
2019-04-29T19:51:55.537Z,11.00
2019-04-29T19:54:28.365Z,11.33
2019-04-29T19:57:02.940Z,11.65
2019-04-29T19:59:26.103Z,12.58
2019-04-29T20:02:02.015Z,11.90
2019-04-29T20:04:32.002Z,13.53
2019-04-29T20:07:06.665Z,11.93
2019-04-29T20:09:31.644Z,11.97
2019-04-29T20:12:11.835Z,13.50
2019-04-29T20:14:33.673Z,12.75
2019-04-29T20:17:09.541Z,11.15
2019-04-29T20:19:40.581Z,11.73
2019-04-29T20:22:09.843Z,11.57
2019-04-29T20:24:38.709Z,11.03
2019-04-29T20:27:07.527Z,11.50
2019-04-29T20:29:38.370Z,11.80
2019-04-29T20:32:07.885Z,11.80
2019-04-29T20:34:36.507Z,12.10
2019-04-29T20:37:05.967Z,13.10
2019-04-29T20:39:35.687Z,13.93
2019-04-29T20:42:06.392Z,12.75
2019-04-29T20:44:36.530Z,13.77
2019-04-29T20:47:19.105Z,12.40
2019-04-29T20:49:37.228Z,13.30
2019-04-29T20:52:06.502Z,12.80
2019-04-29T20:54:36.022Z,12.88
2019-04-29T20:57:06.971Z,13.20
2019-04-29T20:59:35.852Z,13.35
2019-04-29T21:02:12.579Z,13.35
2019-04-29T21:04:45.716Z,14.00
2019-04-29T21:07:07.030Z,14.18
2019-04-29T21:09:35.717Z,14.05
2019-04-29T21:12:22.609Z,14.30
2019-04-29T21:14:52.543Z,14.20
2019-04-29T21:17:30.835Z,14.05
2019-04-29T21:19:50.863Z,14.10
2019-04-29T21:22:23.439Z,14.60
2019-04-29T21:24:53.709Z,14.50
2019-04-29T21:27:22.551Z,13.90
2019-04-29T21:29:49.914Z,13.68
2019-04-29T21:32:19.895Z,13.78
2019-04-29T21:34:50.099Z,14.68
2019-04-29T21:37:32.250Z,14.00
2019-04-29T21:40:14.607Z,14.70
2019-04-29T21:42:47.121Z,14.80
2019-04-29T21:45:15.528Z,14.47
2019-04-29T21:47:52.712Z,14.70
2019-04-29T21:50:15.392Z,14.68
2019-04-29T21:52:44.743Z,15.60
2019-04-29T21:55:15.938Z,14.68
2019-04-29T21:57:44.706Z,15.48
2019-04-29T22:00:15.658Z,15.10
2019-04-29T22:02:46.683Z,15.38
2019-04-29T22:05:18.428Z,15.32
2019-04-29T22:07:47.482Z,15.30
2019-04-29T22:10:15.376Z,15.15
2019-04-29T22:12:43.622Z,14.60
2019-04-29T22:15:13.557Z,15.80
2019-04-29T22:17:53.785Z,15.50
2019-04-29T22:20:15.854Z,16.00
2019-04-29T22:22:45.250Z,15.45
2019-04-29T22:25:15.751Z,15.08
2019-04-29T22:27:45.127Z,16.30
2019-04-29T22:30:18.494Z,16.70
2019-04-29T22:32:47.153Z,16.15
2019-04-29T22:35:16.580Z,17.20
2019-04-29T22:37:45.402Z,16.63
2019-04-29T22:40:15.469Z,16.80
2019-04-29T22:42:47.462Z,17.15
2019-04-29T22:45:16.039Z,17.20
2019-04-29T22:47:44.363Z,17.48
2019-04-29T22:50:13.608Z,16.95
2019-04-29T22:52:42.204Z,18.05
2019-04-29T22:55:11.096Z,16.97
2019-04-29T22:57:39.395Z,17.12
2019-04-29T23:00:08.422Z,17.70
2019-04-29T23:02:36.702Z,16.73
2019-04-29T23:05:07.983Z,18.12
2019-04-29T23:07:37.744Z,17.85
2019-04-29T23:10:07.337Z,18.10
2019-04-29T23:12:35.628Z,19.23
2019-04-29T23:15:07.814Z,18.53
2019-04-29T23:17:36.121Z,19.40
2019-04-29T23:20:09.244Z,18.55
2019-04-29T23:22:45.128Z,20.15
2019-04-29T23:25:21.727Z,20.57
2019-04-29T23:27:52.201Z,21.12
2019-04-29T23:30:20.396Z,20.45
2019-04-29T23:32:48.692Z,20.17
2019-04-29T23:35:16.983Z,20.10
2019-04-29T23:37:45.767Z,20.72
2019-04-29T23:40:15.187Z,21.95
2019-04-29T23:42:47.483Z,22.00
2019-04-29T23:45:20.790Z,22.65
2019-04-29T23:47:46.980Z,22.93
2019-04-29T23:50:18.747Z,23.20
2019-04-29T23:52:47.929Z,23.42
2019-04-29T23:55:15.940Z,23.87
2019-04-29T23:57:46.095Z,24.40
